Time;durP1;ratioP1;P1;durP2;ratioP2;P2;SDS_P1;SDS_P2;PMS_P1;PMS_P2;Temp;Humidity;BMP_temperature;BMP_pressure;BME280_temperature;BME280_humidity;BME280_pressure;Samples;Min_cycle;Max_cycle;Signal;HPM_P1;HPM_P2
2021/12/21 00:00:49;;;;;;;41.83;12.93;;;0.20;85.80;;;;;;5052852;28;20111;-76
2021/12/21 00:03:15;;;;;;;41.07;12.70;;;0.20;85.80;;;;;;5054586;28;20087;-76
2021/12/21 00:05:41;;;;;;;42.37;13.23;;;0.20;85.80;;;;;;5052890;28;20086;-77
2021/12/21 00:08:10;;;;;;;40.63;13.87;;;0.20;85.80;;;;;;5056216;28;20071;-76
2021/12/21 00:10:36;;;;;;;42.77;12.23;;;0.20;86.60;;;;;;5050054;28;20073;-73
2021/12/21 00:13:07;;;;;;;45.37;13.00;;;0.10;85.80;;;;;;5053383;28;20091;-73
2021/12/21 00:15:49;;;;;;;40.08;13.13;;;0.10;85.80;;;;;;5051722;28;20068;-72
2021/12/21 00:21:04;;;;;;;41.10;11.87;;;0.10;85.70;;;;;;5053551;28;20477;-73
2021/12/21 00:23:34;;;;;;;39.33;12.63;;;0.10;85.80;;;;;;5039879;28;20072;-72
2021/12/21 00:26:14;;;;;;;37.40;12.10;;;0.00;85.80;;;;;;5051853;28;20079;-72
2021/12/21 00:29:02;;;;;;;32.93;11.20;;;0.00;85.80;;;;;;5049878;28;20089;-72
2021/12/21 00:31:30;;;;;;;33.37;11.83;;;0.00;85.70;;;;;;5052298;28;20561;-72
2021/12/21 00:33:57;;;;;;;33.40;10.97;;;0.00;85.70;;;;;;5052751;28;20075;-71
2021/12/21 00:36:25;;;;;;;35.13;13.50;;;0.00;85.70;;;;;;5048506;28;20091;-72
2021/12/21 00:38:52;;;;;;;36.97;12.27;;;0.00;85.80;;;;;;5050296;28;20162;-72
2021/12/21 00:41:19;;;;;;;31.27;12.47;;;-0.10;85.80;;;;;;5048441;28;20101;-72
2021/12/21 00:43:45;;;;;;;40.13;12.30;;;-0.10;85.90;;;;;;5044104;28;20079;-71
2021/12/21 00:46:11;;;;;;;36.67;13.73;;;-0.10;85.90;;;;;;5050868;28;20546;-76
2021/12/21 00:48:46;;;;;;;33.20;12.50;;;-0.10;85.90;;;;;;5036226;28;20558;-76
2021/12/21 00:51:13;;;;;;;32.30;12.00;;;-0.10;85.90;;;;;;5050782;28;20086;-71
2021/12/21 00:53:39;;;;;;;30.80;12.80;;;-0.10;85.90;;;;;;5049459;28;20099;-72
2021/12/21 00:56:05;;;;;;;34.43;12.10;;;-0.10;85.80;;;;;;5051958;28;20531;-72
2021/12/21 00:58:31;;;;;;;33.50;12.40;;;-0.10;85.80;;;;;;5046245;28;20076;-71
2021/12/21 01:00:57;;;;;;;31.47;11.63;;;-0.20;85.70;;;;;;5042438;28;20115;-75
2021/12/21 01:03:24;;;;;;;33.70;11.87;;;-0.10;85.90;;;;;;5053439;28;20412;-75
2021/12/21 01:05:57;;;;;;;32.07;11.33;;;-0.10;85.90;;;;;;5050324;28;20076;-76
2021/12/21 01:08:27;;;;;;;31.00;12.30;;;-0.20;85.90;;;;;;5051808;28;20072;-71
2021/12/21 01:13:33;;;;;;;29.00;10.33;;;-0.20;85.80;;;;;;5052174;28;20101;-71
2021/12/21 01:18:36;;;;;;;27.17;10.93;;;-0.20;85.80;;;;;;5049677;28;20089;-71
2021/12/21 01:21:17;;;;;;;31.83;11.00;;;-0.20;85.80;;;;;;5048545;28;20119;-75
2021/12/21 01:32:11;;;;;;;33.07;11.80;;;-0.30;85.90;;;;;;5054646;28;20100;-75
2021/12/21 01:37:26;;;;;;;33.50;12.27;;;-0.30;86.00;;;;;;5051603;28;20184;-75
2021/12/21 01:43:03;;;;;;;37.77;11.87;;;-0.30;86.00;;;;;;5040149;28;20115;-70
2021/12/21 01:50:57;;;;;;;35.30;12.53;;;-0.40;86.00;;;;;;5051499;28;20121;-75
2021/12/21 01:53:23;;;;;;;31.30;12.10;;;-0.40;86.00;;;;;;5049173;28;20100;-75
2021/12/21 01:55:49;;;;;;;39.23;12.30;;;-0.40;86.00;;;;;;5052892;28;20068;-75
2021/12/21 01:58:15;;;;;;;37.23;13.10;;;-0.40;86.10;;;;;;5052067;28;20083;-75
2021/12/21 02:00:41;;;;;;;43.03;13.03;;;-0.40;86.10;;;;;;5052359;28;20108;-75
2021/12/21 02:03:07;;;;;;;32.27;12.40;;;-0.40;86.10;;;;;;5052143;28;20099;-75
2021/12/21 02:05:33;;;;;;;39.40;14.33;;;-0.40;86.10;;;;;;5047546;28;20095;-70
2021/12/21 02:07:59;;;;;;;37.57;11.93;;;-0.40;86.10;;;;;;5050122;28;20137;-70
2021/12/21 02:10:25;;;;;;;40.87;13.33;;;-0.50;86.00;;;;;;5047738;28;20087;-70
2021/12/21 02:12:51;;;;;;;31.00;13.50;;;-0.50;86.00;;;;;;5051788;28;20083;-70
2021/12/21 02:15:17;;;;;;;35.10;12.57;;;-0.50;86.00;;;;;;5031289;28;20083;-69
2021/12/21 02:30:37;;;;;;;42.23;14.53;;;-0.60;86.00;;;;;;5051185;28;20099;-75
2021/12/21 02:33:03;;;;;;;33.93;13.43;;;-0.60;85.90;;;;;;5050542;28;20068;-74
2021/12/21 02:35:28;;;;;;;39.30;14.30;;;-0.60;86.10;;;;;;5049553;28;20428;-69
2021/12/21 02:37:54;;;;;;;37.43;12.60;;;-0.60;86.10;;;;;;5050600;28;20095;-68
2021/12/21 02:40:19;;;;;;;29.73;11.10;;;-0.60;86.10;;;;;;5044872;28;20107;-68
2021/12/21 02:42:45;;;;;;;42.50;12.07;;;-0.60;86.10;;;;;;5049433;28;20091;-69
2021/12/21 02:45:11;;;;;;;39.93;11.77;;;-0.60;86.00;;;;;;5047525;28;20175;-68
2021/12/21 02:47:37;;;;;;;38.97;12.40;;;-0.60;86.00;;;;;;5021562;28;20079;-68
2021/12/21 02:50:04;;;;;;;32.60;10.50;;;-0.60;86.00;;;;;;5028776;28;20084;-68
2021/12/21 02:52:29;;;;;;;30.90;11.20;;;-0.60;86.00;;;;;;5046022;28;20114;-69
2021/12/21 02:54:55;;;;;;;32.07;11.57;;;-0.70;86.00;;;;;;5041820;28;20118;-68
2021/12/21 02:57:21;;;;;;;29.93;10.53;;;-0.60;86.00;;;;;;5030726;28;20087;-68
2021/12/21 02:59:47;;;;;;;31.20;10.83;;;-0.70;85.90;;;;;;5041837;28;20099;-68
2021/12/21 03:02:12;;;;;;;34.20;11.87;;;-0.70;85.80;;;;;;5044541;28;20502;-68
2021/12/21 03:04:43;;;;;;;30.30;10.33;;;-0.70;85.90;;;;;;5047719;28;20076;-68
2021/12/21 03:09:57;;;;;;;30.83;9.60;;;-0.70;85.90;;;;;;5040606;28;20090;-73
2021/12/21 03:14:51;;;;;;;27.67;9.57;;;-0.80;85.80;;;;;;5049261;28;20096;-73
2021/12/21 03:17:18;;;;;;;20.63;9.10;;;-0.80;85.40;;;;;;5053158;28;20497;-72
2021/12/21 03:19:44;;;;;;;21.53;8.33;;;-0.80;85.90;;;;;;5049610;28;20149;-73
2021/12/21 03:22:11;;;;;;;19.70;8.53;;;-0.80;85.90;;;;;;5049943;28;20167;-73
2021/12/21 03:24:37;;;;;;;27.83;8.90;;;-0.90;85.90;;;;;;5051074;28;20070;-73
2021/12/21 03:27:05;;;;;;;26.83;8.80;;;-0.90;86.00;;;;;;5048713;28;20133;-73
2021/12/21 03:29:31;;;;;;;21.07;7.43;;;-0.80;86.00;;;;;;5050080;28;20086;-73
2021/12/21 03:31:57;;;;;;;22.57;9.00;;;-0.80;86.10;;;;;;5050196;28;20084;-73
2021/12/21 03:34:24;;;;;;;27.00;8.87;;;-0.80;86.00;;;;;;5054726;28;20206;-73
2021/12/21 03:36:50;;;;;;;29.47;7.30;;;-0.90;85.90;;;;;;5052545;28;20572;-72
2021/12/21 03:39:18;;;;;;;21.23;7.37;;;-0.90;85.90;;;;;;5055001;28;20133;-73
2021/12/21 03:41:51;;;;;;;24.37;7.33;;;-0.90;85.90;;;;;;5050939;28;20137;-67
2021/12/21 03:44:19;;;;;;;18.50;7.27;;;-0.90;85.90;;;;;;5043504;28;20221;-68
2021/12/21 03:46:48;;;;;;;18.07;7.83;;;-0.90;85.80;;;;;;5047098;28;20081;-67
2021/12/21 03:52:18;;;;;;;22.77;8.90;;;-0.90;85.80;;;;;;5064802;28;20088;-67
2021/12/21 03:54:50;;;;;;;20.97;7.37;;;-0.90;85.80;;;;;;5048899;28;20098;-67
2021/12/21 03:57:17;;;;;;;19.85;7.60;;;-1.00;85.70;;;;;;5048873;28;20129;-67
2021/12/21 03:59:44;;;;;;;20.33;7.07;;;-1.00;85.70;;;;;;5049088;28;20139;-67
2021/12/21 04:02:12;;;;;;;15.73;6.47;;;-1.00;85.90;;;;;;5049360;28;20103;-67
2021/12/21 04:04:39;;;;;;;22.40;7.53;;;-1.00;85.90;;;;;;5053407;28;20091;-67
2021/12/21 04:07:05;;;;;;;18.20;7.90;;;-1.00;85.90;;;;;;5032223;28;20076;-67
2021/12/21 04:09:31;;;;;;;19.97;7.50;;;-1.00;85.90;;;;;;5046935;28;20145;-67
2021/12/21 04:11:56;;;;;;;24.47;7.43;;;-1.00;85.90;;;;;;5052634;28;20076;-72
2021/12/21 04:14:22;;;;;;;14.60;6.73;;;-1.00;85.90;;;;;;5032389;28;20095;-72
2021/12/21 04:16:52;;;;;;;20.33;8.00;;;-1.00;85.90;;;;;;5036170;28;20189;-72
2021/12/21 04:19:18;;;;;;;15.60;6.63;;;-1.00;85.80;;;;;;5051986;28;20106;-72
2021/12/21 04:21:44;;;;;;;16.60;7.40;;;-1.00;85.80;;;;;;5053811;28;20077;-72
2021/12/21 04:24:10;;;;;;;25.77;7.77;;;-1.00;85.80;;;;;;5050182;28;20076;-72
2021/12/21 04:26:35;;;;;;;18.27;7.10;;;-1.10;85.80;;;;;;5052904;28;20462;-72
2021/12/21 04:29:01;;;;;;;19.77;6.90;;;-1.10;85.80;;;;;;5047271;28;20087;-72
2021/12/21 04:31:27;;;;;;;19.03;7.33;;;-1.10;85.80;;;;;;5050797;28;20505;-73
2021/12/21 04:33:53;;;;;;;19.30;7.30;;;-1.10;85.70;;;;;;5031950;28;20574;-72
2021/12/21 04:36:18;;;;;;;19.60;6.97;;;-1.10;85.70;;;;;;5048274;28;20091;-72
2021/12/21 04:38:48;;;;;;;16.57;8.03;;;-1.10;85.60;;;;;;5066351;28;20082;-72
2021/12/21 04:43:42;;;;;;;18.33;6.57;;;-1.10;85.70;;;;;;5051356;28;20179;-72
2021/12/21 04:46:08;;;;;;;21.33;7.97;;;-1.20;85.60;;;;;;5054589;28;20558;-72
2021/12/21 04:48:35;;;;;;;17.57;7.70;;;-1.20;85.70;;;;;;5042072;28;20171;-73
2021/12/21 04:51:01;;;;;;;15.33;7.03;;;-1.20;85.70;;;;;;5054182;28;20083;-72
2021/12/21 04:53:27;;;;;;;17.03;7.17;;;-1.20;85.70;;;;;;5051068;28;20079;-72
2021/12/21 04:55:53;;;;;;;20.67;7.30;;;-1.20;85.70;;;;;;5053826;28;20106;-72
2021/12/21 04:58:19;;;;;;;15.93;6.67;;;-1.20;85.70;;;;;;5033583;28;20070;-73
2021/12/21 05:00:45;;;;;;;15.53;7.27;;;-1.20;85.70;;;;;;5065204;28;20108;-72
2021/12/21 05:03:11;;;;;;;18.83;6.73;;;-1.20;85.70;;;;;;5050804;28;20415;-73
2021/12/21 05:05:36;;;;;;;19.10;6.73;;;-1.20;85.70;;;;;;5052524;28;20080;-72
2021/12/21 05:10:33;;;;;;;14.80;6.47;;;-1.20;85.80;;;;;;5055459;28;20103;-73
2021/12/21 05:12:59;;;;;;;18.23;6.67;;;-1.20;85.80;;;;;;5056914;28;20108;-72
2021/12/21 05:15:24;;;;;;;17.00;6.40;;;-1.20;85.70;;;;;;5033067;28;20079;-72
2021/12/21 05:17:50;;;;;;;17.50;7.23;;;-1.20;85.60;;;;;;5050011;28;20156;-73
2021/12/21 05:20:16;;;;;;;22.97;7.93;;;-1.20;85.60;;;;;;5051613;28;20079;-73
2021/12/21 05:22:41;;;;;;;15.40;6.63;;;-1.20;85.60;;;;;;5049480;28;20150;-73
2021/12/21 05:25:07;;;;;;;19.67;6.60;;;-1.30;85.60;;;;;;5055097;28;20142;-73
2021/12/21 05:27:33;;;;;;;15.80;6.97;;;-1.30;85.60;;;;;;5044798;28;20264;-73
2021/12/21 05:29:58;;;;;;;18.73;6.87;;;-1.30;85.60;;;;;;5034178;28;20550;-72
2021/12/21 05:32:24;;;;;;;22.83;7.00;;;-1.30;85.50;;;;;;5049151;28;20114;-72
2021/12/21 05:34:50;;;;;;;25.53;7.10;;;-1.30;85.50;;;;;;5048147;28;20076;-72
2021/12/21 05:37:15;;;;;;;17.67;7.50;;;-1.30;85.40;;;;;;5048981;28;20100;-72
2021/12/21 05:39:57;;;;;;;24.80;8.07;;;-1.30;85.50;;;;;;5052468;28;20098;-72
2021/12/21 05:42:23;;;;;;;;;;;-1.30;85.60;;;;;;5052069;28;20065;-72
2021/12/21 05:44:51;;;;;;;15.97;6.27;;;-1.30;85.60;;;;;;5050166;28;19971;-72
2021/12/21 05:47:17;;;;;;;17.40;6.70;;;-1.30;85.50;;;;;;5042966;28;20148;-66
2021/12/21 05:49:43;;;;;;;17.57;7.77;;;-1.40;85.40;;;;;;5040391;28;20092;-67
2021/12/21 05:52:09;;;;;;;19.00;7.73;;;-1.40;85.50;;;;;;5048417;28;20099;-68
2021/12/21 05:54:35;;;;;;;18.90;7.27;;;-1.40;85.50;;;;;;5036068;28;20107;-67
2021/12/21 05:57:02;;;;;;;13.50;6.73;;;-1.40;85.60;;;;;;5041569;28;20740;-67
2021/12/21 05:59:27;;;;;;;15.30;6.27;;;-1.40;85.60;;;;;;5039322;28;20594;-67
2021/12/21 06:01:53;;;;;;;16.37;7.23;;;-1.40;85.50;;;;;;5037013;28;20104;-67
2021/12/21 06:04:21;;;;;;;19.93;6.50;;;-1.40;85.50;;;;;;5038628;28;20084;-66
2021/12/21 06:06:47;;;;;;;16.17;7.20;;;-1.40;85.50;;;;;;5039226;28;20079;-66
2021/12/21 06:09:13;;;;;;;20.47;8.00;;;-1.50;85.40;;;;;;5047873;28;20447;-66
2021/12/21 06:11:47;;;;;;;18.27;7.17;;;-1.50;85.40;;;;;;5048160;28;20088;-66
2021/12/21 06:27:12;;;;;;;14.50;5.80;;;-1.50;86.30;;;;;;5052913;28;20199;-72
2021/12/21 06:29:38;;;;;;;15.93;6.37;;;-1.50;85.50;;;;;;5051818;28;20449;-73
2021/12/21 06:32:05;;;;;;;17.97;6.50;;;-1.50;85.40;;;;;;5052486;28;20166;-73
2021/12/21 06:34:30;;;;;;;14.77;7.30;;;-1.50;85.40;;;;;;5052710;28;20075;-72
2021/12/21 06:36:56;;;;;;;19.60;6.73;;;-1.50;85.50;;;;;;5050926;28;20099;-72
2021/12/21 06:39:22;;;;;;;16.20;5.73;;;-1.50;85.40;;;;;;5049678;28;20080;-72
2021/12/21 06:41:48;;;;;;;12.20;6.43;;;-1.50;85.40;;;;;;5046178;28;20213;-66
2021/12/21 06:44:16;;;;;;;15.93;7.67;;;-1.50;85.30;;;;;;5060050;28;20520;-66
2021/12/21 06:52:01;;;;;;;19.07;7.20;;;-1.60;85.30;;;;;;5054785;28;20122;-66
2021/12/21 06:54:28;;;;;;;23.47;9.07;;;-1.60;85.30;;;;;;5051897;28;20496;-66
2021/12/21 06:56:54;;;;;;;19.53;8.00;;;-1.60;85.40;;;;;;5046751;28;20153;-66
2021/12/21 06:59:20;;;;;;;24.27;8.37;;;-1.60;85.40;;;;;;5046280;28;20195;-66
2021/12/21 07:01:48;;;;;;;16.00;6.57;;;-1.60;85.40;;;;;;5042359;28;20174;-66
2021/12/21 07:04:17;;;;;;;15.73;7.27;;;-1.60;85.40;;;;;;5047206;28;20163;-67
2021/12/21 07:06:45;;;;;;;14.77;6.77;;;-1.60;85.50;;;;;;5039137;28;20178;-65
2021/12/21 07:09:20;;;;;;;18.13;7.20;;;-1.60;85.50;;;;;;5047214;28;20484;-66
2021/12/21 07:11:53;;;;;;;21.97;6.97;;;-1.60;85.50;;;;;;5046490;28;20095;-66
2021/12/21 07:19:48;;;;;;;16.73;6.17;;;-1.60;85.30;;;;;;5039589;28;20447;-66
2021/12/21 07:22:14;;;;;;;11.87;6.23;;;-1.60;85.30;;;;;;5049084;28;20079;-65
2021/12/21 07:24:40;;;;;;;19.63;6.90;;;-1.70;85.30;;;;;;5044397;28;20087;-66
2021/12/21 07:27:06;;;;;;;19.70;7.57;;;-1.70;85.30;;;;;;5050184;28;20080;-66
2021/12/21 07:29:31;;;;;;;13.00;6.53;;;-1.70;85.30;;;;;;5043775;28;20098;-66
2021/12/21 07:31:57;;;;;;;15.33;6.47;;;-1.70;85.30;;;;;;5050459;28;20445;-66
2021/12/21 07:34:22;;;;;;;15.93;7.03;;;-1.70;85.30;;;;;;5043941;28;20095;-72
2021/12/21 07:36:48;;;;;;;15.97;6.63;;;-1.70;85.30;;;;;;5051367;28;20095;-73
2021/12/21 07:39:19;;;;;;;20.47;7.63;;;-1.70;85.40;;;;;;5055837;28;20076;-72
2021/12/21 07:41:46;;;;;;;13.15;6.82;;;-1.70;85.30;;;;;;5056793;28;20079;-65
2021/12/21 07:44:13;;;;;;;21.83;7.83;;;-1.70;85.30;;;;;;5053738;28;20071;-66
2021/12/21 07:46:40;;;;;;;13.73;6.90;;;-1.70;85.30;;;;;;5044229;28;20081;-66
2021/12/21 07:49:06;;;;;;;22.73;8.83;;;-1.70;85.20;;;;;;5047259;28;20101;-66
2021/12/21 07:51:32;;;;;;;19.37;7.60;;;-1.70;85.20;;;;;;5045852;28;20111;-66
2021/12/21 07:53:58;;;;;;;23.73;8.67;;;-1.80;85.20;;;;;;5049063;28;20080;-66
2021/12/21 07:56:23;;;;;;;22.37;8.53;;;-1.70;85.30;;;;;;5044333;28;20104;-66
2021/12/21 07:58:50;;;;;;;21.23;7.93;;;-1.70;85.40;;;;;;5045484;28;20076;-65
2021/12/21 08:01:16;;;;;;;23.60;9.20;;;-1.70;85.30;;;;;;5047048;28;20118;-66
2021/12/21 08:03:42;;;;;;;18.97;8.43;;;-1.70;85.30;;;;;;5036793;28;20137;-66
2021/12/21 08:06:11;;;;;;;21.57;8.70;;;-1.70;85.20;;;;;;5042791;28;20540;-66
2021/12/21 08:08:40;;;;;;;17.53;8.33;;;-1.70;85.20;;;;;;5041673;28;20086;-66
2021/12/21 08:13:37;;;;;;;24.40;8.47;;;-1.80;85.20;;;;;;5044975;28;20083;-66
2021/12/21 08:16:03;;;;;;;25.47;8.73;;;-1.70;85.30;;;;;;5043094;28;20080;-65
2021/12/21 08:18:28;;;;;;;22.00;8.97;;;-1.70;85.30;;;;;;5047799;28;20151;-66
2021/12/21 08:20:54;;;;;;;25.40;9.40;;;-1.70;85.30;;;;;;5030812;28;20089;-66
2021/12/21 08:23:20;;;;;;;27.03;9.17;;;-1.70;85.30;;;;;;5051664;28;20574;-65
2021/12/21 08:25:46;;;;;;;19.63;8.77;;;-1.70;85.40;;;;;;5047673;28;20080;-65
2021/12/21 08:28:12;;;;;;;31.33;10.17;;;-1.70;85.30;;;;;;5051943;28;20107;-65
2021/12/21 08:30:38;;;;;;;27.57;10.20;;;-1.70;85.30;;;;;;5047417;28;20083;-66
2021/12/21 08:33:04;;;;;;;22.37;9.83;;;-1.60;85.50;;;;;;5050216;28;20083;-66
2021/12/21 08:35:31;;;;;;;34.83;11.17;;;-1.60;85.50;;;;;;5051248;28;20079;-66
2021/12/21 08:38:04;;;;;;;25.53;10.43;;;-1.60;85.50;;;;;;5047234;28;20182;-66
2021/12/21 08:40:37;;;;;;;23.30;11.43;;;-1.60;85.50;;;;;;5034028;28;20092;-66
2021/12/21 08:43:09;;;;;;;23.70;12.00;;;-1.60;85.50;;;;;;5048926;28;20076;-72
2021/12/21 08:45:36;;;;;;;34.27;11.83;;;-1.50;85.50;;;;;;5064781;28;20064;-72
2021/12/21 08:48:05;;;;;;;25.57;11.30;;;-1.50;85.50;;;;;;5053455;28;20076;-72
2021/12/21 08:50:31;;;;;;;27.13;12.67;;;-1.50;85.60;;;;;;5053961;28;20072;-73
2021/12/21 08:52:58;;;;;;;30.20;12.60;;;-1.50;85.60;;;;;;5054814;28;20133;-73
2021/12/21 08:55:24;;;;;;;25.70;11.63;;;-1.50;85.70;;;;;;5053278;28;20171;-72
2021/12/21 08:57:50;;;;;;;24.80;11.23;;;-1.50;85.80;;;;;;5053062;28;20170;-72
2021/12/21 09:00:16;;;;;;;21.27;9.93;;;-1.40;86.00;;;;;;5052740;28;20194;-72
2021/12/21 09:02:42;;;;;;;23.67;11.60;;;-1.40;86.00;;;;;;5054048;28;20603;-72
2021/12/21 09:05:15;;;;;;;29.70;10.93;;;-1.40;86.10;;;;;;5050850;28;20163;-73
2021/12/21 09:07:42;;;;;;;29.07;11.43;;;-1.40;86.10;;;;;;5052680;28;20134;-72
2021/12/21 09:10:10;;;;;;;27.50;10.70;;;-1.30;86.20;;;;;;5054163;28;20523;-73
2021/12/21 09:12:35;;;;;;;24.70;10.27;;;-1.30;86.30;;;;;;5052574;28;20134;-73
2021/12/21 09:15:03;;;;;;;20.83;9.57;;;-1.30;86.30;;;;;;5066891;28;20526;-73
2021/12/21 09:17:29;;;;;;;22.23;9.83;;;-1.20;86.50;;;;;;5050388;28;20103;-72
2021/12/21 09:19:56;;;;;;;22.17;9.50;;;-1.20;86.50;;;;;;5052683;28;20551;-72
2021/12/21 09:22:21;;;;;;;20.23;9.27;;;-1.10;86.60;;;;;;5052592;28;20068;-72
2021/12/21 09:24:47;;;;;;;17.87;9.13;;;-1.10;86.70;;;;;;5051106;28;20078;-72
2021/12/21 09:27:13;;;;;;;24.50;10.30;;;-1.10;86.80;;;;;;5050010;28;20134;-72
2021/12/21 09:29:39;;;;;;;27.37;11.83;;;-1.00;86.80;;;;;;5050687;28;20084;-73
2021/12/21 09:32:06;;;;;;;27.10;10.50;;;-1.00;86.20;;;;;;5057410;28;20080;-73
2021/12/21 09:34:32;;;;;;;24.00;10.03;;;-0.90;87.00;;;;;;5052413;28;20071;-72
2021/12/21 09:37:00;;;;;;;21.70;9.67;;;-0.90;87.00;;;;;;5054246;28;20463;-72
2021/12/21 09:39:25;;;;;;;25.43;10.13;;;-0.80;87.10;;;;;;5053017;28;20076;-73
2021/12/21 09:41:51;;;;;;;23.47;9.60;;;-0.80;87.20;;;;;;5053085;28;20079;-73
2021/12/21 09:44:17;;;;;;;24.50;10.07;;;-0.70;87.20;;;;;;5052599;28;20122;-73
2021/12/21 09:46:43;;;;;;;26.47;10.37;;;-0.70;87.40;;;;;;5052765;28;20146;-73
2021/12/21 09:49:09;;;;;;;27.23;10.67;;;-0.60;87.70;;;;;;5052522;28;20587;-73
2021/12/21 09:51:34;;;;;;;32.17;12.37;;;-0.50;88.00;;;;;;5051985;28;20114;-73
2021/12/21 09:54:00;;;;;;;26.20;11.43;;;-0.40;88.30;;;;;;5035754;28;20081;-73
2021/12/21 09:56:26;;;;;;;33.07;14.37;;;-0.30;88.40;;;;;;5053929;28;20091;-74
2021/12/21 09:58:52;;;;;;;30.60;14.20;;;-0.20;88.50;;;;;;5052647;28;20128;-73
2021/12/21 10:01:20;;;;;;;32.43;14.87;;;-0.10;88.40;;;;;;5050757;28;20459;-74
2021/12/21 10:03:46;;;;;;;33.83;16.40;;;0.00;88.70;;;;;;5038470;28;20455;-74
2021/12/21 10:06:12;;;;;;;40.40;18.83;;;0.10;89.80;;;;;;5052591;28;20067;-74
2021/12/21 10:08:39;;;;;;;42.37;18.50;;;0.20;89.10;;;;;;5050859;28;20078;-75
2021/12/21 10:11:07;;;;;;;48.30;19.00;;;0.30;89.20;;;;;;5054970;28;20071;-75
2021/12/21 10:13:36;;;;;;;51.00;20.77;;;0.40;89.20;;;;;;5050057;28;20599;-75
2021/12/21 10:16:05;;;;;;;38.77;19.37;;;0.50;89.40;;;;;;5052089;28;20477;-76
2021/12/21 10:18:34;;;;;;;50.50;22.87;;;0.60;89.60;;;;;;5051013;28;20099;-76
2021/12/21 10:21:05;;;;;;;40.33;20.60;;;0.70;89.70;;;;;;5041529;28;20078;-75
2021/12/21 10:23:34;;;;;;;43.53;22.27;;;0.80;90.00;;;;;;5052807;28;20155;-75
2021/12/21 10:26:10;;;;;;;46.23;23.93;;;0.90;90.00;;;;;;5050773;28;20788;-75
2021/12/21 10:28:40;;;;;;;51.77;25.10;;;1.10;90.00;;;;;;5059955;28;20150;-76
2021/12/21 10:31:21;;;;;;;48.75;23.92;;;1.20;90.00;;;;;;5051349;28;20079;-75
2021/12/21 10:33:46;;;;;;;48.83;24.13;;;1.30;90.10;;;;;;5047336;28;20078;-75
2021/12/21 10:36:13;;;;;;;52.80;27.17;;;1.40;90.00;;;;;;5057017;28;20066;-75
2021/12/21 10:38:51;;;;;;;51.28;25.77;;;1.50;90.00;;;;;;5023019;28;20072;-75
2021/12/21 10:41:28;;;;;;;58.67;27.20;;;1.60;90.00;;;;;;5051696;28;20447;-75
2021/12/21 10:43:58;;;;;;;59.03;27.42;;;1.60;90.00;;;;;;5049167;28;20109;-75
2021/12/21 10:46:27;;;;;;;52.15;27.15;;;1.70;90.00;;;;;;5050792;28;20162;-75
2021/12/21 10:49:11;;;;;;;61.97;26.75;;;1.70;90.10;;;;;;5051083;28;20067;-75
2021/12/21 10:51:49;;;;;;;50.85;25.60;;;1.80;90.20;;;;;;5049661;28;20090;-75
2021/12/21 10:54:39;;;;;;;47.55;23.15;;;2.00;90.60;;;;;;5051600;28;20071;-75
2021/12/21 10:57:10;;;;;;;47.80;22.73;;;2.10;90.20;;;;;;5049332;28;20153;-75
2021/12/21 10:59:39;;;;;;;49.08;24.63;;;2.10;90.10;;;;;;5050251;28;20102;-75
2021/12/21 11:02:11;;;;;;;53.78;26.30;;;2.20;90.10;;;;;;5058033;28;20174;-75
2021/12/21 11:04:47;;;;;;;56.80;25.83;;;2.20;90.20;;;;;;5054930;28;20072;-75
2021/12/21 11:07:34;;;;;;;47.00;24.00;;;2.30;90.20;;;;;;5049163;28;20102;-75
2021/12/21 11:10:26;;;;;;;53.30;24.42;;;2.40;90.20;;;;;;5050762;28;20106;-75
2021/12/21 11:12:59;;;;;;;50.65;23.42;;;2.40;90.20;;;;;;5051533;28;20170;-75
2021/12/21 11:15:34;;;;;;;45.38;22.23;;;2.50;90.10;;;;;;5052480;28;20476;-75
2021/12/21 11:18:04;;;;;;;47.95;21.30;;;2.50;90.10;;;;;;5053704;28;20094;-75
2021/12/21 11:20:30;;;;;;;46.20;21.25;;;2.50;90.10;;;;;;5050388;28;20066;-75
2021/12/21 11:22:56;;;;;;;43.35;20.45;;;2.50;90.10;;;;;;5048363;28;20074;-75
2021/12/21 11:25:23;;;;;;;45.67;19.95;;;2.60;90.20;;;;;;5049943;28;20072;-75
2021/12/21 11:27:50;;;;;;;55.67;24.10;;;2.70;90.10;;;;;;5052816;28;20527;-75
2021/12/21 11:30:20;;;;;;;49.10;20.65;;;2.70;90.10;;;;;;5048213;28;20527;-74
2021/12/21 11:32:49;;;;;;;42.13;19.23;;;2.70;90.10;;;;;;5061180;28;20075;-75
2021/12/21 11:37:55;;;;;;;38.92;17.98;;;2.70;90.00;;;;;;5051648;28;20090;-76
2021/12/21 11:40:25;;;;;;;36.55;16.98;;;2.80;90.00;;;;;;5048942;28;20060;-75
2021/12/21 11:42:50;;;;;;;31.60;16.30;;;2.80;89.90;;;;;;5050498;28;20176;-75
2021/12/21 11:45:41;;;;;;;39.88;15.48;;;2.90;89.80;;;;;;5051814;28;20154;-75
2021/12/21 11:48:09;;;;;;;36.00;16.52;;;2.90;89.70;;;;;;5050448;28;20492;-75
2021/12/21 11:50:37;;;;;;;36.97;15.40;;;2.90;89.70;;;;;;5055733;28;20129;-75
2021/12/21 11:53:06;;;;;;;32.75;15.02;;;2.90;89.60;;;;;;5048385;28;20079;-75
2021/12/21 11:55:33;;;;;;;33.67;15.18;;;3.00;89.50;;;;;;5064246;28;20156;-75
2021/12/21 11:58:13;;;;;;;34.60;15.85;;;3.00;89.50;;;;;;5053528;28;20091;-75
2021/12/21 12:00:48;;;;;;;38.20;17.48;;;3.00;89.50;;;;;;5051653;28;20114;-75
2021/12/21 12:03:21;;;;;;;37.70;16.58;;;3.00;89.40;;;;;;5068588;28;20066;-76
2021/12/21 12:06:02;;;;;;;28.85;15.43;;;3.00;89.20;;;;;;5059028;28;20404;-69
2021/12/21 12:08:43;;;;;;;31.50;15.63;;;3.00;89.20;;;;;;5051654;28;20083;-69
2021/12/21 12:11:35;;;;;;;45.35;14.88;;;3.10;89.10;;;;;;5052987;28;20073;-69
2021/12/21 12:14:10;;;;;;;34.85;15.38;;;3.10;88.90;;;;;;5049093;28;20385;-69
2021/12/21 12:16:44;;;;;;;36.83;14.38;;;3.10;88.80;;;;;;5048638;28;20086;-69
2021/12/21 12:19:13;;;;;;;34.03;14.73;;;3.10;88.70;;;;;;5050015;28;20060;-69
2021/12/21 12:21:39;;;;;;;29.83;15.02;;;3.10;88.60;;;;;;5049801;28;20071;-69
2021/12/21 12:24:05;;;;;;;31.63;14.15;;;3.10;88.40;;;;;;5052767;28;20070;-69
2021/12/21 12:26:30;;;;;;;31.88;13.35;;;3.10;88.50;;;;;;5049099;28;20096;-75
2021/12/21 12:29:09;;;;;;;37.78;15.18;;;3.10;88.40;;;;;;5055143;28;20083;-76
2021/12/21 12:31:37;;;;;;;30.05;14.05;;;3.10;88.40;;;;;;5053885;28;20124;-76
2021/12/21 12:34:04;;;;;;;25.20;12.75;;;3.10;88.40;;;;;;5057606;28;20097;-76
2021/12/21 12:36:33;;;;;;;27.65;13.23;;;3.10;88.30;;;;;;5055496;28;20577;-76
2021/12/21 12:38:59;;;;;;;29.13;13.05;;;3.10;88.20;;;;;;5058077;28;20076;-76
2021/12/21 12:41:25;;;;;;;34.92;13.77;;;3.00;88.10;;;;;;5058812;28;20073;-76
2021/12/21 12:43:50;;;;;;;28.27;13.10;;;3.00;88.00;;;;;;5032546;28;20555;-69
2021/12/21 12:46:25;;;;;;;35.63;13.90;;;2.90;87.90;;;;;;5049165;28;20073;-69
2021/12/21 12:48:51;;;;;;;31.70;12.93;;;2.90;88.10;;;;;;5047626;28;20075;-69
2021/12/21 12:51:29;;;;;;;33.92;13.18;;;2.90;88.00;;;;;;5046104;28;20197;-69
2021/12/21 12:53:55;;;;;;;28.02;12.82;;;2.80;88.00;;;;;;5052691;28;20376;-69
2021/12/21 12:56:21;;;;;;;24.67;12.63;;;2.80;87.90;;;;;;5038462;28;20102;-69
2021/12/21 12:58:55;;;;;;;29.67;12.65;;;2.80;88.00;;;;;;5046172;28;20512;-69
2021/12/21 13:01:27;;;;;;;28.05;11.48;;;2.80;88.00;;;;;;5048797;28;20827;-69
2021/12/21 13:03:57;;;;;;;26.58;11.68;;;2.70;88.00;;;;;;5047678;28;20736;-69
2021/12/21 13:06:26;;;;;;;29.65;11.93;;;2.70;88.70;;;;;;5049681;28;20197;-69
2021/12/21 13:08:52;;;;;;;28.70;11.65;;;2.70;87.90;;;;;;5051251;28;20071;-75
2021/12/21 13:11:24;;;;;;;26.92;11.40;;;2.60;87.90;;;;;;5053957;28;20071;-69
2021/12/21 13:13:50;;;;;;;27.02;10.38;;;2.60;87.90;;;;;;5043426;28;20072;-69
2021/12/21 13:16:19;;;;;;;24.38;11.05;;;2.60;87.90;;;;;;5068147;28;20079;-75
2021/12/21 13:18:45;;;;;;;30.13;11.15;;;2.60;87.90;;;;;;5055260;28;20558;-75
2021/12/21 13:21:20;;;;;;;27.35;10.05;;;2.50;87.80;;;;;;5060813;28;20063;-69
2021/12/21 13:23:49;;;;;;;20.63;9.60;;;2.50;87.90;;;;;;5046879;28;20181;-69
2021/12/21 13:26:16;;;;;;;26.02;9.88;;;2.50;87.90;;;;;;5052567;28;20120;-75
2021/12/21 13:28:55;;;;;;;29.30;10.63;;;2.40;88.00;;;;;;5053382;28;20422;-75
2021/12/21 13:31:23;;;;;;;27.45;9.85;;;2.40;88.00;;;;;;5053534;28;20078;-75
2021/12/21 13:33:51;;;;;;;27.58;10.90;;;2.40;88.10;;;;;;5054397;28;20066;-75
2021/12/21 13:36:17;;;;;;;29.92;11.90;;;2.40;88.20;;;;;;5053020;28;20071;-75
2021/12/21 13:38:43;;;;;;;39.65;13.82;;;2.40;88.20;;;;;;5050509;28;20134;-68
2021/12/21 13:41:13;;;;;;;30.70;12.00;;;2.40;88.30;;;;;;5050084;28;20519;-68
2021/12/21 13:43:51;;;;;;;28.60;11.43;;;2.40;88.50;;;;;;5053426;28;20082;-75
2021/12/21 13:46:16;;;;;;;26.63;11.40;;;2.30;88.60;;;;;;5054511;28;20138;-75
2021/12/21 13:48:54;;;;;;;33.63;13.60;;;2.30;88.60;;;;;;5053408;28;20083;-75
2021/12/21 13:51:20;;;;;;;27.30;11.20;;;2.30;88.80;;;;;;5051994;28;20063;-75
2021/12/21 13:53:49;;;;;;;31.63;13.00;;;2.30;88.80;;;;;;5050065;28;20099;-68
2021/12/21 13:56:29;;;;;;;31.45;12.75;;;2.30;88.90;;;;;;5047171;28;20088;-68
2021/12/21 13:58:55;;;;;;;32.85;12.10;;;2.30;89.10;;;;;;5049322;28;20064;-68
2021/12/21 14:01:31;;;;;;;29.67;13.50;;;2.30;89.10;;;;;;5043804;28;20103;-68
2021/12/21 14:04:04;;;;;;;30.75;13.35;;;2.30;89.20;;;;;;5051782;28;20078;-69